Portada
METAR-TAF:

METAR-TAF

Aeropuertos :

Tiaret, Argelia

latitud: 35-15N, longitud: 001-26E, altitud: 1127 m

Observación

El informe se hizo hace 1 hora y 3 minutos, a las 19:00 UTC
Viento 8 kt del sur
Temperatura 16°C
Humedad 23%
Presión 1025 hPa
Visibilidad 10 km o más
sin nubes por debajo de 1500 m y sin presencia de cumulonimbus.

METAR: DAOB 201900Z 17008KT CAVOK 16/M05 Q1025

Hora: 21:03 (20:03 UTC)

Pronóstico

El informe se hizo hace 3 horas y 3 minutos, a las 17:00 UTC
Pronóstico válido del 20 a las 18 UTC al 21 a las 18 UTC
Viento 10 kt del sur-suroeste
Visibilidad 10 km o más
sin nubes por debajo de 1500 m y sin presencia de cumulonimbus.

TAF: DAOB 201700Z 2018/2118 20010KT CAVOK

Observaciones y pronósticos meteorológicos de más de 4000 aeropuertos (mensajes METAR y TAF).

Los puntos amarillos y rojos representan las estaciones disponibles.

Ponga el ratón en el punto deseado para ver el nombre de la estación.

Haga clic para ver las observaciones y los pronósticos meteorológicos.

Para cambiar el mapa : haga clic en los botones verdes con una cruz de color negro para hacer un zoom, en el botón verde con un guión para alejar o en las flechas verdes para mapas adyacentes.


METAR-TAF: